Time;durP1;ratioP1;P1;durP2;ratioP2;P2;SDS_P1;SDS_P2;PMS_P1;PMS_P2;Temp;Humidity;BMP_temperature;BMP_pressure;BME280_temperature;BME280_humidity;BME280_pressure;Samples;Min_cycle;Max_cycle;Signal;HPM_P1;HPM_P2
2021/12/01 15:39:53;;;;;;;1.70;0.40;;;22.30;53.00;;;;;;6154126;27;20433;-54
2021/12/01 15:42:55;;;;;;;0.98;0.40;;;22.60;41.90;;;;;;6146096;27;20053;-56
2021/12/01 15:45:56;;;;;;;0.80;0.30;;;22.80;41.60;;;;;;6148855;27;20133;-58
2021/12/01 15:48:58;;;;;;;0.90;0.30;;;22.90;41.30;;;;;;6124933;27;20499;-57
2021/12/01 15:52:00;;;;;;;1.13;0.45;;;23.10;40.90;;;;;;6154391;27;20138;-55
2021/12/01 15:55:02;;;;;;;0.40;0.30;;;23.20;40.60;;;;;;6157645;27;20044;-56
2021/12/01 15:58:05;;;;;;;0.98;0.40;;;23.40;39.90;;;;;;6167407;27;20042;-54
2021/12/01 16:01:07;;;;;;;0.88;0.40;;;23.20;39.80;;;;;;6167490;27;20153;-54
2021/12/01 16:04:09;;;;;;;1.58;0.30;;;23.50;39.60;;;;;;6129227;27;20146;-57
2021/12/01 16:07:11;;;;;;;0.90;0.20;;;23.70;39.50;;;;;;6104048;27;20138;-57
2021/12/01 16:10:14;;;;;;;0.45;0.40;;;23.70;39.30;;;;;;6115841;27;38383;-54
2021/12/01 16:13:15;;;;;;;0.50;0.38;;;23.50;39.00;;;;;;6154696;27;20046;-55
2021/12/01 16:16:18;;;;;;;0.88;0.30;;;23.60;38.90;;;;;;6168674;27;20184;-58
2021/12/01 16:19:19;;;;;;;1.23;0.45;;;23.60;38.70;;;;;;6142591;27;21606;-56
2021/12/01 16:22:21;;;;;;;0.70;0.30;;;23.70;38.60;;;;;;6142257;27;20042;-55
2021/12/01 16:25:23;;;;;;;1.05;0.40;;;23.60;38.40;;;;;;6106412;27;20122;-56
2021/12/01 16:28:47;;;;;;;0.90;0.30;;;23.70;38.40;;;;;;6128487;27;20184;-50
2021/12/01 16:31:49;;;;;;;0.60;0.30;;;23.80;38.40;;;;;;6116876;27;20444;-56
2021/12/01 16:34:50;;;;;;;0.57;0.30;;;23.70;38.30;;;;;;6152726;27;20787;-56
2021/12/01 16:37:55;;;;;;;0.80;0.35;;;23.80;38.40;;;;;;6144302;27;20112;-53
2021/12/01 16:40:57;;;;;;;0.60;0.22;;;23.80;38.20;;;;;;6166379;27;20039;-56
2021/12/01 16:43:59;;;;;;;0.50;0.20;;;23.70;38.00;;;;;;6141367;27;20173;-55
2021/12/01 16:47:01;;;;;;;8.10;0.60;;;23.60;37.90;;;;;;6149335;27;21936;-59
2021/12/01 16:50:03;;;;;;;0.45;0.20;;;23.80;38.00;;;;;;6133473;27;20476;-62
2021/12/01 16:53:05;;;;;;;0.95;0.30;;;23.70;37.90;;;;;;6128432;27;20884;-58
2021/12/01 16:56:08;;;;;;;0.68;0.20;;;23.70;38.00;;;;;;6128679;27;21132;-60
2021/12/01 16:59:10;;;;;;;1.27;0.32;;;23.70;38.00;;;;;;6132551;27;20305;-61
2021/12/01 17:02:17;;;;;;;1.23;0.30;;;23.70;38.00;;;;;;6135419;27;20045;-60
2021/12/01 17:05:21;;;;;;;1.15;0.47;;;23.70;38.00;;;;;;6138015;27;20051;-57
2021/12/01 17:08:35;;;;;;;0.52;0.20;;;23.60;37.80;;;;;;6186933;27;20135;-55
2021/12/01 17:11:37;;;;;;;0.60;0.20;;;23.60;37.80;;;;;;6179636;27;20042;-55
2021/12/01 17:14:42;;;;;;;1.40;0.30;;;23.60;37.70;;;;;;6192499;27;20047;-53
2021/12/01 17:17:44;;;;;;;0.50;0.20;;;23.60;37.70;;;;;;6164718;27;20217;-54
2021/12/01 17:20:48;;;;;;;0.40;0.30;;;23.70;37.80;;;;;;6211181;27;21152;-54
2021/12/01 17:23:50;;;;;;;0.32;0.30;;;23.70;37.90;;;;;;6230408;27;20146;-53
2021/12/01 17:26:53;;;;;;;0.30;0.28;;;23.60;37.90;;;;;;6228492;27;20043;-58
2021/12/01 17:29:57;;;;;;;0.85;0.30;;;23.60;37.90;;;;;;6212308;27;20047;-58
2021/12/01 17:32:59;;;;;;;1.55;0.20;;;23.60;37.90;;;;;;6252273;27;20164;-56
2021/12/01 17:36:01;;;;;;;0.60;0.17;;;23.50;37.80;;;;;;6245386;27;20050;-56
2021/12/01 17:39:03;;;;;;;0.50;0.30;;;23.60;37.80;;;;;;6196763;27;20112;-59
2021/12/01 17:42:07;;;;;;;0.55;0.20;;;23.60;37.80;;;;;;6260416;27;20162;-59
2021/12/01 17:45:09;;;;;;;0.80;0.52;;;23.70;37.70;;;;;;6227042;27;20366;-57
2021/12/01 17:48:11;;;;;;;0.50;0.20;;;23.50;37.60;;;;;;6265210;27;20126;-57
2021/12/01 17:51:16;;;;;;;0.50;0.40;;;23.40;37.40;;;;;;6276375;27;20045;-60
2021/12/01 17:54:18;;;;;;;1.10;0.30;;;23.30;37.40;;;;;;6282343;27;20213;-56
2021/12/01 17:57:20;;;;;;;0.30;0.20;;;23.40;37.30;;;;;;6258718;27;20050;-59
2021/12/01 18:00:25;;;;;;;0.57;0.30;;;23.40;37.40;;;;;;6275518;27;20185;-58
2021/12/01 18:03:26;;;;;;;0.30;0.20;;;23.40;37.30;;;;;;6282636;27;20116;-55
2021/12/01 18:06:28;;;;;;;0.30;0.20;;;23.40;37.30;;;;;;6285096;27;20052;-56
2021/12/01 18:09:30;;;;;;;0.10;0.10;;;23.20;37.20;;;;;;6285146;27;20047;-57
2021/12/01 18:12:32;;;;;;;0.47;0.30;;;23.40;37.40;;;;;;6289840;27;20909;-55
2021/12/01 18:15:36;;;;;;;1.33;0.30;;;23.30;37.20;;;;;;6296678;27;20074;-57
2021/12/01 18:18:40;;;;;;;0.73;0.20;;;23.30;37.10;;;;;;6293562;27;20141;-53
2021/12/01 18:21:42;;;;;;;0.35;0.30;;;23.10;37.10;;;;;;6285235;27;20070;-51
2021/12/01 18:24:46;;;;;;;0.57;0.30;;;23.20;37.10;;;;;;6286591;27;20085;-53
2021/12/01 18:27:48;;;;;;;0.40;0.30;;;23.30;37.10;;;;;;6286885;27;20086;-51
2021/12/01 18:30:49;;;;;;;0.38;0.30;;;23.20;37.00;;;;;;6289617;27;20558;-54
2021/12/01 18:33:51;;;;;;;0.50;0.38;;;23.20;36.90;;;;;;6299204;27;20050;-55
2021/12/01 18:36:54;;;;;;;0.43;0.30;;;23.20;36.90;;;;;;6315178;27;20071;-57
2021/12/01 18:39:55;;;;;;;1.15;0.55;;;23.00;36.80;;;;;;6292237;27;20039;-53
2021/12/01 18:42:58;;;;;;;0.47;0.32;;;23.10;36.80;;;;;;6302422;27;20446;-51
2021/12/01 18:46:00;;;;;;;0.75;0.30;;;23.10;36.80;;;;;;6268364;27;20462;-48
2021/12/01 18:49:04;;;;;;;0.85;0.35;;;23.20;36.90;;;;;;6280218;27;20488;-52
2021/12/01 18:52:06;;;;;;;0.88;0.38;;;23.00;36.80;;;;;;6294434;27;20643;-50
2021/12/01 18:55:08;;;;;;;0.22;0.20;;;22.90;36.30;;;;;;6299272;27;20772;-48
2021/12/01 18:58:30;;;;;;;0.60;0.30;;;23.00;36.80;;;;;;6281737;27;20361;-48
2021/12/01 19:01:32;;;;;;;0.50;0.35;;;23.00;36.90;;;;;;6293079;27;20043;-50
2021/12/01 19:04:34;;;;;;;0.73;0.52;;;22.80;36.80;;;;;;6295927;27;20039;-51
2021/12/01 19:07:36;;;;;;;0.73;0.40;;;22.90;36.80;;;;;;6298039;27;20316;-53
2021/12/01 19:10:38;;;;;;;0.55;0.40;;;22.90;36.90;;;;;;6299275;27;20289;-52
2021/12/01 19:13:40;;;;;;;0.55;0.30;;;22.80;36.80;;;;;;6308405;27;20031;-57
2021/12/01 19:16:43;;;;;;;0.75;0.40;;;22.70;36.80;;;;;;6306092;27;20173;-54
2021/12/01 19:19:45;;;;;;;0.70;0.22;;;22.80;36.90;;;;;;6307632;27;20548;-54
2021/12/01 19:22:48;;;;;;;1.20;0.68;;;22.80;36.90;;;;;;6303669;27;20432;-56
2021/12/01 19:25:49;;;;;;;0.70;0.40;;;22.60;36.80;;;;;;6288455;27;20492;-54
2021/12/01 19:28:52;;;;;;;0.55;0.32;;;22.80;36.90;;;;;;6306052;27;20050;-59
2021/12/01 19:31:56;;;;;;;0.68;0.32;;;22.50;36.80;;;;;;6301960;27;20038;-56
2021/12/01 19:34:57;;;;;;;0.47;0.30;;;22.60;36.80;;;;;;6326886;27;20035;-58
2021/12/01 19:37:59;;;;;;;0.68;0.38;;;22.70;36.90;;;;;;6327629;27;20141;-55
2021/12/01 19:41:01;;;;;;;;;;;22.50;36.80;;;;;;6315797;27;20131;-58
2021/12/01 19:44:05;;;;;;;0.43;0.40;;;22.60;36.90;;;;;;6301973;27;19931;-58
2021/12/01 19:47:07;;;;;;;0.70;0.40;;;22.40;36.90;;;;;;6322032;27;20038;-59
2021/12/01 19:50:09;;;;;;;0.55;0.30;;;22.40;36.90;;;;;;6320261;27;20049;-58
2021/12/01 19:53:10;;;;;;;0.80;0.35;;;22.50;37.00;;;;;;6319513;27;20039;-58
2021/12/01 19:56:18;;;;;;;0.40;0.30;;;22.30;36.90;;;;;;6322476;27;20337;-59
2021/12/01 19:59:21;;;;;;;0.73;0.43;;;22.30;37.00;;;;;;6282681;27;20134;-59
2021/12/01 20:02:24;;;;;;;0.65;0.40;;;22.50;37.10;;;;;;6317082;27;20103;-59
2021/12/01 20:05:46;;;;;;;0.60;0.30;;;22.40;37.10;;;;;;6306812;27;20055;-58
2021/12/01 20:08:51;;;;;;;;;;;22.40;37.20;;;;;;6313157;27;20093;-56
2021/12/01 20:11:53;;;;;;;0.43;0.30;;;22.40;37.30;;;;;;6314639;27;19933;-59
2021/12/01 20:14:56;;;;;;;0.95;0.50;;;22.30;37.20;;;;;;6319742;27;21714;-54
2021/12/01 20:17:59;;;;;;;1.17;0.30;;;22.10;37.10;;;;;;6315719;27;20083;-58
2021/12/01 20:21:03;;;;;;;0.50;0.40;;;22.30;37.20;;;;;;6313902;27;20060;-59
2021/12/01 20:24:06;;;;;;;0.77;0.40;;;22.80;37.50;;;;;;6320668;27;20043;-58
2021/12/01 20:27:08;;;;;;;0.60;0.40;;;22.30;37.30;;;;;;6330465;27;20055;-55
2021/12/01 20:30:11;;;;;;;0.38;0.30;;;22.20;37.30;;;;;;6311728;27;20112;-56
2021/12/01 20:33:14;;;;;;;0.50;0.35;;;22.20;37.30;;;;;;6315861;27;20070;-56
2021/12/01 20:36:16;;;;;;;0.60;0.40;;;22.00;37.30;;;;;;6325653;27;20063;-54
2021/12/01 20:39:20;;;;;;;0.65;0.30;;;22.10;37.30;;;;;;6317383;27;20042;-58
2021/12/01 20:42:23;;;;;;;0.40;0.30;;;22.20;37.40;;;;;;6322774;27;21102;-55
2021/12/01 20:45:30;;;;;;;0.70;0.57;;;22.20;37.30;;;;;;6322420;27;20047;-57
2021/12/01 20:55:08;;;;;;;0.73;0.40;;;22.10;37.40;;;;;;6321095;27;20168;-57
2021/12/01 20:58:14;;;;;;;0.73;0.43;;;22.00;37.40;;;;;;6315304;27;20035;-56
2021/12/01 21:01:26;;;;;;;0.85;0.40;;;22.00;37.40;;;;;;6315455;27;20078;-56
2021/12/01 21:04:29;;;;;;;1.08;0.30;;;22.00;37.40;;;;;;6301266;27;20038;-58
2021/12/01 21:07:33;;;;;;;0.43;0.30;;;21.70;37.30;;;;;;6330721;27;20043;-57
2021/12/01 21:10:42;;;;;;;0.30;0.20;;;21.80;37.30;;;;;;6320983;27;20138;-56
2021/12/01 21:13:45;;;;;;;0.30;0.25;;;21.70;37.30;;;;;;6327367;27;20960;-55
2021/12/01 21:16:48;;;;;;;0.70;0.45;;;21.90;37.40;;;;;;6305469;27;20035;-55
2021/12/01 21:19:49;;;;;;;1.00;0.50;;;22.00;37.40;;;;;;6290879;27;20662;-58
2021/12/01 21:22:54;;;;;;;0.47;0.28;;;21.60;37.30;;;;;;6328085;27;20031;-56
2021/12/01 21:26:00;;;;;;;0.63;0.40;;;21.70;37.40;;;;;;6333860;27;20150;-54
2021/12/01 21:29:04;;;;;;;0.90;0.55;;;21.70;37.40;;;;;;6327543;27;20161;-56
2021/12/01 21:32:09;;;;;;;0.63;0.28;;;21.70;37.40;;;;;;6301604;27;20864;-58
2021/12/01 21:35:11;;;;;;;0.68;0.50;;;21.80;37.50;;;;;;6323500;27;20054;-58
2021/12/01 21:38:13;;;;;;;0.73;0.30;;;21.80;37.60;;;;;;6308477;27;20116;-52
2021/12/01 21:41:16;;;;;;;0.60;0.40;;;21.90;37.70;;;;;;6293261;27;20116;-58
2021/12/01 21:44:19;;;;;;;0.80;0.55;;;21.70;37.60;;;;;;6322567;27;20972;-57
2021/12/01 21:47:22;;;;;;;0.73;0.40;;;21.70;37.70;;;;;;6323925;27;20042;-59
2021/12/01 21:50:25;;;;;;;0.50;0.30;;;21.80;37.80;;;;;;6322752;27;20046;-58
2021/12/01 21:53:29;;;;;;;0.43;0.30;;;21.60;37.80;;;;;;6281155;27;20043;-57
2021/12/01 21:56:34;;;;;;;0.65;0.30;;;21.60;37.80;;;;;;6305873;27;20046;-58
2021/12/01 21:59:39;;;;;;;0.77;0.43;;;21.70;37.90;;;;;;6307987;27;20108;-58
2021/12/01 22:02:44;;;;;;;0.60;0.30;;;21.60;37.90;;;;;;6321413;27;20134;-58
2021/12/01 22:05:46;;;;;;;0.98;0.30;;;21.70;38.00;;;;;;6302447;27;20042;-56
2021/12/01 22:08:50;;;;;;;0.47;0.30;;;21.60;38.00;;;;;;6326220;27;20057;-58
2021/12/01 22:11:52;;;;;;;0.52;0.32;;;21.80;38.20;;;;;;6332996;27;20810;-54
2021/12/01 22:14:53;;;;;;;0.88;0.47;;;21.70;38.10;;;;;;6327536;27;20049;-57
2021/12/01 22:17:56;;;;;;;0.73;0.40;;;21.50;38.10;;;;;;6328087;27;20933;-57
2021/12/01 22:21:02;;;;;;;0.32;0.30;;;21.60;38.30;;;;;;6300454;27;20146;-59
2021/12/01 22:24:08;;;;;;;0.63;0.50;;;21.50;38.20;;;;;;6288021;27;20114;-58
2021/12/01 22:27:10;;;;;;;0.70;0.30;;;21.50;38.30;;;;;;6308772;27;20043;-55
2021/12/01 22:30:20;;;;;;;0.60;0.35;;;21.50;38.30;;;;;;6331354;27;21189;-58
2021/12/01 22:33:26;;;;;;;0.73;0.32;;;21.40;38.30;;;;;;6295104;27;20059;-58
2021/12/01 22:36:32;;;;;;;0.50;0.30;;;21.60;38.50;;;;;;6327514;27;20133;-59
2021/12/01 22:39:34;;;;;;;0.75;0.40;;;21.60;38.50;;;;;;6327276;27;20047;-56
2021/12/01 22:42:35;;;;;;;0.45;0.30;;;21.60;38.60;;;;;;6322230;27;20174;-58
2021/12/01 22:45:37;;;;;;;0.93;0.40;;;21.60;38.60;;;;;;6327833;27;20047;-58
2021/12/01 22:48:39;;;;;;;0.73;0.45;;;21.60;38.60;;;;;;6333555;27;20039;-58
2021/12/01 22:51:41;;;;;;;0.75;0.22;;;21.50;38.60;;;;;;6334780;27;20046;-58
2021/12/01 22:54:42;;;;;;;;;;;21.30;38.50;;;;;;6330898;27;20038;-59
2021/12/01 22:57:49;;;;;;;0.52;0.30;;;21.50;38.70;;;;;;6326795;27;19927;-56
2021/12/01 23:00:50;;;;;;;0.50;0.40;;;21.50;38.70;;;;;;6281838;27;20042;-56
2021/12/01 23:03:55;;;;;;;0.88;0.40;;;21.40;38.70;;;;;;6285389;27;20560;-60
2021/12/01 23:06:58;;;;;;;0.60;0.30;;;21.20;38.60;;;;;;6325453;27;20089;-57
2021/12/01 23:10:00;;;;;;;0.40;0.40;;;21.50;38.90;;;;;;6310245;27;20042;-59
2021/12/01 23:13:01;;;;;;;0.80;0.30;;;21.50;38.80;;;;;;6325694;27;20063;-59
2021/12/01 23:16:03;;;;;;;0.40;0.20;;;21.40;38.90;;;;;;6326745;27;20906;-53
2021/12/01 23:19:07;;;;;;;0.52;0.40;;;21.50;39.00;;;;;;6318630;27;20158;-59
2021/12/01 23:22:13;;;;;;;0.88;0.30;;;21.50;39.00;;;;;;6309728;27;20125;-57
2021/12/01 23:28:28;;;;;;;0.55;0.38;;;21.40;39.00;;;;;;6329374;27;20054;-57
2021/12/01 23:31:29;;;;;;;0.50;0.32;;;21.20;39.00;;;;;;6296138;27;20147;-58
2021/12/01 23:34:31;;;;;;;;;;;21.30;39.10;;;;;;6330497;27;20102;-58
2021/12/01 23:37:33;;;;;;;0.63;0.30;;;21.40;39.10;;;;;;6320404;27;20690;-58
2021/12/01 23:40:35;;;;;;;0.45;0.30;;;21.50;39.10;;;;;;6322127;27;20304;-58
2021/12/01 23:43:37;;;;;;;;;;;21.20;39.00;;;;;;6320888;27;20138;-59
2021/12/01 23:53:10;;;;;;;0.50;0.20;;;21.40;39.20;;;;;;6321142;27;20046;-56
2021/12/01 23:56:11;;;;;;;0.30;0.30;;;21.40;39.20;;;;;;6315322;27;20035;-58
2021/12/01 23:59:13;;;;;;;0.65;0.20;;;21.20;39.20;;;;;;6292893;27;20078;-57
